Hilton Head Island, SC (29928)

9:35 PM EST on February 07, 2016 (GMT -0500)
APRSWXNET | | Change Station
CLOSE
Current Station
Personal Weather Station
Location: Hilton Head Island, SC
Elevation: 9 ft
Nearby Weather Stations

Elev 9 ft 32.19 °N, 80.70 °W | Updated 18 minutes ago

Clear
Clear
42 °F
Feels Like 42 °F
N
0
Wind Variable Wind from WSW
Gusts 1.0 mph

Today
High -- | Low -- °F
--% Chance of Precip.
Yesterday
High -- | Low -- °F
Precip. -- in
Pressure 29.98 in
Visibility 10.0 miles
Clouds Clear
Windchill 42 °F
Dew Point 37 °F
Humidity 82%
Rainfall in
Snow Depth Not available.
7:12 AM 6:01 PM
Waning Crescent, 0% visible
METAR KHXD 080235Z AUTO 00000KT 10SM CLR 04/02 A2998 RMK AO2 P0000
Pressure 29.98 in
Visibility 10.0 miles
Clouds Clear
Windchill 42 °F
Dew Point 37 °F
Humidity 82%
Rainfall in
Snow Depth Not available.
7:12 AM 6:01 PM
Waning Crescent, 0% visible
METAR KHXD 080235Z AUTO 00000KT 10SM CLR 04/02 A2998 RMK AO2 P0000

10-Day Weather Forecast

Almanac

Astronomy

Feb. 07, 2016 Rise Set
Actual Time
Civil Twilight
Nautical Twilight
Astronomical Twilight
Moon
Length of Visible Light
Length of Day
Tomorrow will be .
, % of the Moon is Illuminated

Today's Extremes

State Highs State Lows

Community

WunderPhotos

Upload Photos

1,891,373 photos uploaded!

WunderBlog® & News

Nearby

Air Quality

  Air Quality AQ Index Pollutant
Not available.

Snow Depth

Station Depth Elevation

Earthquake Activity

City Distance Mag. Time & Date
Minimum magnitude displayed is 2.5.

Coastal Water Temperatures

Place Temperature

Stations

Nearby Weather Stations

Station Location Temp. Windchill Dew Point Humidity Wind Precip. Elev Updated Type
                   

Watches & Warnings

There are currently no watches in effect.